sensor_id;sensor_type;location;lat;lon;timestamp;P1;durP1;ratioP1;P2;durP2;ratioP2
44098;SDS011;29762;50.086;14.364;2022-10-16T00:04:55;0.70;;;0.70;;
44098;SDS011;29762;50.086;14.364;2022-10-16T00:10:14;0.60;;;0.60;;
44098;SDS011;29762;50.086;14.364;2022-10-16T00:15:34;0.90;;;0.70;;
44098;SDS011;29762;50.086;14.364;2022-10-16T00:21:05;0.70;;;0.70;;
44098;SDS011;29762;50.086;14.364;2022-10-16T00:26:27;0.80;;;0.80;;
44098;SDS011;29762;50.086;14.364;2022-10-16T00:31:47;0.80;;;0.80;;
44098;SDS011;29762;50.086;14.364;2022-10-16T00:37:06;0.70;;;0.70;;
44098;SDS011;29762;50.086;14.364;2022-10-16T00:42:26;0.63;;;0.63;;
44098;SDS011;29762;50.086;14.364;2022-10-16T00:47:45;0.52;;;0.52;;
44098;SDS011;29762;50.086;14.364;2022-10-16T00:53:08;0.70;;;0.70;;
44098;SDS011;29762;50.086;14.364;2022-10-16T00:58:27;0.60;;;0.60;;
44098;SDS011;29762;50.086;14.364;2022-10-16T01:03:47;0.77;;;0.77;;
44098;SDS011;29762;50.086;14.364;2022-10-16T01:09:11;0.60;;;0.60;;
44098;SDS011;29762;50.086;14.364;2022-10-16T01:20:08;0.70;;;0.70;;
44098;SDS011;29762;50.086;14.364;2022-10-16T01:25:45;0.73;;;0.73;;
44098;SDS011;29762;50.086;14.364;2022-10-16T01:31:15;0.50;;;0.50;;
44098;SDS011;29762;50.086;14.364;2022-10-16T01:36:55;0.60;;;0.60;;
44098;SDS011;29762;50.086;14.364;2022-10-16T01:42:24;0.50;;;0.50;;
44098;SDS011;29762;50.086;14.364;2022-10-16T01:47:48;0.52;;;0.52;;
44098;SDS011;29762;50.086;14.364;2022-10-16T01:53:09;0.70;;;0.70;;
44098;SDS011;29762;50.086;14.364;2022-10-16T01:58:32;0.50;;;0.50;;
44098;SDS011;29762;50.086;14.364;2022-10-16T02:03:54;0.50;;;0.50;;
44098;SDS011;29762;50.086;14.364;2022-10-16T02:09:15;0.55;;;0.55;;
44098;SDS011;29762;50.086;14.364;2022-10-16T02:14:37;0.70;;;0.70;;
44098;SDS011;29762;50.086;14.364;2022-10-16T02:19:57;0.60;;;0.60;;
44098;SDS011;29762;50.086;14.364;2022-10-16T02:25:19;0.57;;;0.57;;
44098;SDS011;29762;50.086;14.364;2022-10-16T02:30:55;0.60;;;0.60;;
44098;SDS011;29762;50.086;14.364;2022-10-16T02:36:16;0.60;;;0.60;;
44098;SDS011;29762;50.086;14.364;2022-10-16T02:41:36;0.55;;;0.55;;
44098;SDS011;29762;50.086;14.364;2022-10-16T02:46:56;0.52;;;0.52;;
44098;SDS011;29762;50.086;14.364;2022-10-16T02:52:15;0.50;;;0.50;;
44098;SDS011;29762;50.086;14.364;2022-10-16T02:57:34;0.55;;;0.55;;
44098;SDS011;29762;50.086;14.364;2022-10-16T03:02:55;0.52;;;0.52;;
44098;SDS011;29762;50.086;14.364;2022-10-16T03:08:15;0.50;;;0.50;;
44098;SDS011;29762;50.086;14.364;2022-10-16T03:13:34;0.55;;;0.55;;
44098;SDS011;29762;50.086;14.364;2022-10-16T03:18:54;0.50;;;0.50;;
44098;SDS011;29762;50.086;14.364;2022-10-16T03:24:13;0.50;;;0.50;;
44098;SDS011;29762;50.086;14.364;2022-10-16T03:29:32;0.55;;;0.55;;
44098;SDS011;29762;50.086;14.364;2022-10-16T03:34:52;3.17;;;0.60;;
44098;SDS011;29762;50.086;14.364;2022-10-16T03:40:13;0.45;;;0.45;;
44098;SDS011;29762;50.086;14.364;2022-10-16T03:45:33;0.40;;;0.40;;
44098;SDS011;29762;50.086;14.364;2022-10-16T03:50:52;0.47;;;0.47;;
44098;SDS011;29762;50.086;14.364;2022-10-16T03:56:12;0.55;;;0.50;;
44098;SDS011;29762;50.086;14.364;2022-10-16T04:01:32;0.45;;;0.45;;
44098;SDS011;29762;50.086;14.364;2022-10-16T04:06:51;0.40;;;0.40;;
44098;SDS011;29762;50.086;14.364;2022-10-16T04:12:10;0.50;;;0.50;;
44098;SDS011;29762;50.086;14.364;2022-10-16T04:17:29;0.55;;;0.55;;
44098;SDS011;29762;50.086;14.364;2022-10-16T04:22:48;0.50;;;0.50;;
44098;SDS011;29762;50.086;14.364;2022-10-16T04:28:07;0.50;;;0.50;;
44098;SDS011;29762;50.086;14.364;2022-10-16T04:33:27;0.35;;;0.35;;
44098;SDS011;29762;50.086;14.364;2022-10-16T04:38:46;0.47;;;0.47;;
44098;SDS011;29762;50.086;14.364;2022-10-16T04:44:06;0.50;;;0.50;;
44098;SDS011;29762;50.086;14.364;2022-10-16T04:49:25;0.40;;;0.40;;
44098;SDS011;29762;50.086;14.364;2022-10-16T04:54:44;0.50;;;0.50;;
44098;SDS011;29762;50.086;14.364;2022-10-16T05:00:04;0.50;;;0.50;;
44098;SDS011;29762;50.086;14.364;2022-10-16T05:05:25;0.40;;;0.40;;
44098;SDS011;29762;50.086;14.364;2022-10-16T05:10:44;0.40;;;0.40;;
44098;SDS011;29762;50.086;14.364;2022-10-16T05:16:04;0.55;;;0.55;;
44098;SDS011;29762;50.086;14.364;2022-10-16T05:21:23;0.50;;;0.50;;
44098;SDS011;29762;50.086;14.364;2022-10-16T05:26:42;0.50;;;0.50;;
44098;SDS011;29762;50.086;14.364;2022-10-16T05:32:02;0.52;;;0.52;;
44098;SDS011;29762;50.086;14.364;2022-10-16T05:37:22;0.60;;;0.60;;
44098;SDS011;29762;50.086;14.364;2022-10-16T05:42:42;0.50;;;0.50;;
44098;SDS011;29762;50.086;14.364;2022-10-16T05:48:01;0.50;;;0.50;;
44098;SDS011;29762;50.086;14.364;2022-10-16T05:53:20;0.55;;;0.55;;
44098;SDS011;29762;50.086;14.364;2022-10-16T05:58:44;0.60;;;0.60;;
44098;SDS011;29762;50.086;14.364;2022-10-16T06:04:03;0.50;;;0.50;;
44098;SDS011;29762;50.086;14.364;2022-10-16T06:09:23;0.47;;;0.47;;
44098;SDS011;29762;50.086;14.364;2022-10-16T06:14:42;0.40;;;0.40;;
44098;SDS011;29762;50.086;14.364;2022-10-16T06:20:02;0.40;;;0.40;;
44098;SDS011;29762;50.086;14.364;2022-10-16T06:25:21;0.52;;;0.52;;
44098;SDS011;29762;50.086;14.364;2022-10-16T06:30:41;0.35;;;0.35;;
44098;SDS011;29762;50.086;14.364;2022-10-16T06:36:03;0.45;;;0.45;;
44098;SDS011;29762;50.086;14.364;2022-10-16T06:41:25;0.50;;;0.50;;
44098;SDS011;29762;50.086;14.364;2022-10-16T06:46:44;0.40;;;0.40;;
44098;SDS011;29762;50.086;14.364;2022-10-16T06:52:04;0.40;;;0.40;;
44098;SDS011;29762;50.086;14.364;2022-10-16T06:57:24;0.52;;;0.52;;
44098;SDS011;29762;50.086;14.364;2022-10-16T07:02:43;0.50;;;0.50;;
44098;SDS011;29762;50.086;14.364;2022-10-16T07:08:02;0.43;;;0.43;;
44098;SDS011;29762;50.086;14.364;2022-10-16T07:13:24;0.40;;;0.40;;
44098;SDS011;29762;50.086;14.364;2022-10-16T07:18:43;0.40;;;0.40;;
44098;SDS011;29762;50.086;14.364;2022-10-16T07:24:06;0.57;;;0.57;;
44098;SDS011;29762;50.086;14.364;2022-10-16T07:29:29;0.45;;;0.45;;
44098;SDS011;29762;50.086;14.364;2022-10-16T07:34:48;0.47;;;0.47;;
44098;SDS011;29762;50.086;14.364;2022-10-16T07:40:08;0.50;;;0.50;;
44098;SDS011;29762;50.086;14.364;2022-10-16T07:45:28;0.50;;;0.50;;
44098;SDS011;29762;50.086;14.364;2022-10-16T07:50:47;0.40;;;0.40;;
44098;SDS011;29762;50.086;14.364;2022-10-16T07:56:06;0.40;;;0.40;;
44098;SDS011;29762;50.086;14.364;2022-10-16T08:01:26;0.55;;;0.55;;
44098;SDS011;29762;50.086;14.364;2022-10-16T08:06:46;0.50;;;0.50;;
44098;SDS011;29762;50.086;14.364;2022-10-16T08:12:05;0.40;;;0.40;;
44098;SDS011;29762;50.086;14.364;2022-10-16T08:17:24;0.40;;;0.40;;
44098;SDS011;29762;50.086;14.364;2022-10-16T08:22:44;0.55;;;0.55;;
44098;SDS011;29762;50.086;14.364;2022-10-16T08:28:03;0.40;;;0.40;;
44098;SDS011;29762;50.086;14.364;2022-10-16T08:33:25;0.50;;;0.50;;
44098;SDS011;29762;50.086;14.364;2022-10-16T08:38:46;0.60;;;0.60;;
44098;SDS011;29762;50.086;14.364;2022-10-16T08:49:43;0.30;;;0.30;;
44098;SDS011;29762;50.086;14.364;2022-10-16T09:01:11;0.47;;;0.47;;
44098;SDS011;29762;50.086;14.364;2022-10-16T09:06:40;0.40;;;0.40;;
44098;SDS011;29762;50.086;14.364;2022-10-16T09:17:59;0.30;;;0.30;;
44098;SDS011;29762;50.086;14.364;2022-10-16T09:23:37;0.50;;;0.50;;
44098;SDS011;29762;50.086;14.364;2022-10-16T09:28:57;0.40;;;0.40;;
44098;SDS011;29762;50.086;14.364;2022-10-16T09:34:33;0.30;;;0.30;;
44098;SDS011;29762;50.086;14.364;2022-10-16T09:39:54;0.50;;;0.50;;
44098;SDS011;29762;50.086;14.364;2022-10-16T09:45:21;0.40;;;0.40;;
44098;SDS011;29762;50.086;14.364;2022-10-16T09:50:42;0.40;;;0.40;;
44098;SDS011;29762;50.086;14.364;2022-10-16T09:56:01;0.40;;;0.40;;
44098;SDS011;29762;50.086;14.364;2022-10-16T10:01:25;0.38;;;0.38;;
44098;SDS011;29762;50.086;14.364;2022-10-16T10:06:54;0.30;;;0.30;;
44098;SDS011;29762;50.086;14.364;2022-10-16T10:12:24;0.30;;;0.30;;
44098;SDS011;29762;50.086;14.364;2022-10-16T10:17:46;0.35;;;0.35;;
44098;SDS011;29762;50.086;14.364;2022-10-16T10:23:21;0.38;;;0.38;;
44098;SDS011;29762;50.086;14.364;2022-10-16T10:45:26;0.45;;;0.45;;
44098;SDS011;29762;50.086;14.364;2022-10-16T10:51:07;0.40;;;0.40;;
44098;SDS011;29762;50.086;14.364;2022-10-16T10:56:40;0.40;;;0.40;;
44098;SDS011;29762;50.086;14.364;2022-10-16T11:13:47;0.30;;;0.30;;
44098;SDS011;29762;50.086;14.364;2022-10-16T11:19:31;0.40;;;0.40;;
44098;SDS011;29762;50.086;14.364;2022-10-16T11:36:11;0.40;;;0.40;;
44098;SDS011;29762;50.086;14.364;2022-10-16T11:52:25;0.30;;;0.30;;
44098;SDS011;29762;50.086;14.364;2022-10-16T11:57:49;0.50;;;0.40;;
44098;SDS011;29762;50.086;14.364;2022-10-16T12:08:34;0.63;;;0.50;;
44098;SDS011;29762;50.086;14.364;2022-10-16T12:14:07;0.40;;;0.40;;
44098;SDS011;29762;50.086;14.364;2022-10-16T12:19:37;0.40;;;0.40;;
44098;SDS011;29762;50.086;14.364;2022-10-16T12:24:57;0.50;;;0.50;;
44098;SDS011;29762;50.086;14.364;2022-10-16T12:30:20;0.30;;;0.30;;
44098;SDS011;29762;50.086;14.364;2022-10-16T12:35:44;0.47;;;0.47;;
44098;SDS011;29762;50.086;14.364;2022-10-16T12:41:05;0.30;;;0.30;;
44098;SDS011;29762;50.086;14.364;2022-10-16T12:51:48;0.30;;;0.30;;
44098;SDS011;29762;50.086;14.364;2022-10-16T13:08:52;0.40;;;0.40;;
44098;SDS011;29762;50.086;14.364;2022-10-16T13:20:51;0.40;;;0.40;;
44098;SDS011;29762;50.086;14.364;2022-10-16T13:31:32;0.47;;;0.47;;
44098;SDS011;29762;50.086;14.364;2022-10-16T13:36:53;0.30;;;0.30;;
44098;SDS011;29762;50.086;14.364;2022-10-16T13:47:42;0.30;;;0.30;;
44098;SDS011;29762;50.086;14.364;2022-10-16T13:53:05;0.30;;;0.30;;
44098;SDS011;29762;50.086;14.364;2022-10-16T13:58:25;0.40;;;0.40;;
44098;SDS011;29762;50.086;14.364;2022-10-16T14:03:45;0.30;;;0.30;;
44098;SDS011;29762;50.086;14.364;2022-10-16T14:09:06;0.38;;;0.38;;
44098;SDS011;29762;50.086;14.364;2022-10-16T14:14:29;0.40;;;0.40;;
44098;SDS011;29762;50.086;14.364;2022-10-16T14:20:13;0.40;;;0.40;;
44098;SDS011;29762;50.086;14.364;2022-10-16T14:25:34;0.40;;;0.40;;
44098;SDS011;29762;50.086;14.364;2022-10-16T14:30:55;0.40;;;0.40;;
44098;SDS011;29762;50.086;14.364;2022-10-16T14:36:16;0.30;;;0.30;;
44098;SDS011;29762;50.086;14.364;2022-10-16T14:41:41;0.35;;;0.35;;
44098;SDS011;29762;50.086;14.364;2022-10-16T14:47:06;0.30;;;0.30;;
44098;SDS011;29762;50.086;14.364;2022-10-16T14:52:28;0.35;;;0.30;;
44098;SDS011;29762;50.086;14.364;2022-10-16T14:57:47;0.30;;;0.30;;
44098;SDS011;29762;50.086;14.364;2022-10-16T15:03:06;0.40;;;0.40;;
44098;SDS011;29762;50.086;14.364;2022-10-16T15:08:26;0.40;;;0.40;;
44098;SDS011;29762;50.086;14.364;2022-10-16T15:13:45;0.30;;;0.30;;
44098;SDS011;29762;50.086;14.364;2022-10-16T15:19:05;0.35;;;0.35;;
44098;SDS011;29762;50.086;14.364;2022-10-16T15:24:24;0.35;;;0.35;;
44098;SDS011;29762;50.086;14.364;2022-10-16T15:29:44;0.30;;;0.30;;
44098;SDS011;29762;50.086;14.364;2022-10-16T15:35:03;0.40;;;0.40;;
44098;SDS011;29762;50.086;14.364;2022-10-16T15:40:23;0.30;;;0.30;;
44098;SDS011;29762;50.086;14.364;2022-10-16T15:45:42;0.40;;;0.40;;
44098;SDS011;29762;50.086;14.364;2022-10-16T15:51:05;0.30;;;0.30;;
44098;SDS011;29762;50.086;14.364;2022-10-16T15:56:25;0.32;;;0.32;;
44098;SDS011;29762;50.086;14.364;2022-10-16T16:01:45;0.32;;;0.32;;
44098;SDS011;29762;50.086;14.364;2022-10-16T16:07:04;0.30;;;0.30;;
44098;SDS011;29762;50.086;14.364;2022-10-16T16:12:26;0.30;;;0.30;;
44098;SDS011;29762;50.086;14.364;2022-10-16T16:17:46;0.70;;;0.30;;
44098;SDS011;29762;50.086;14.364;2022-10-16T16:23:05;0.38;;;0.38;;
44098;SDS011;29762;50.086;14.364;2022-10-16T16:28:25;0.30;;;0.30;;
44098;SDS011;29762;50.086;14.364;2022-10-16T16:33:45;0.40;;;0.40;;
44098;SDS011;29762;50.086;14.364;2022-10-16T16:39:04;0.40;;;0.40;;
44098;SDS011;29762;50.086;14.364;2022-10-16T16:44:24;0.30;;;0.30;;
44098;SDS011;29762;50.086;14.364;2022-10-16T16:49:44;0.32;;;0.32;;
44098;SDS011;29762;50.086;14.364;2022-10-16T16:55:05;0.30;;;0.30;;
44098;SDS011;29762;50.086;14.364;2022-10-16T17:00:25;0.30;;;0.30;;
44098;SDS011;29762;50.086;14.364;2022-10-16T17:05:54;0.35;;;0.35;;
44098;SDS011;29762;50.086;14.364;2022-10-16T17:11:18;0.32;;;0.32;;
44098;SDS011;29762;50.086;14.364;2022-10-16T17:16:39;0.40;;;0.40;;
44098;SDS011;29762;50.086;14.364;2022-10-16T17:22:02;0.40;;;0.40;;
44098;SDS011;29762;50.086;14.364;2022-10-16T17:27:22;0.30;;;0.30;;
44098;SDS011;29762;50.086;14.364;2022-10-16T17:32:41;0.40;;;0.40;;
44098;SDS011;29762;50.086;14.364;2022-10-16T17:38:00;0.40;;;0.40;;
44098;SDS011;29762;50.086;14.364;2022-10-16T17:43:20;0.30;;;0.30;;
44098;SDS011;29762;50.086;14.364;2022-10-16T17:48:40;0.30;;;0.30;;
44098;SDS011;29762;50.086;14.364;2022-10-16T17:54:01;0.30;;;0.30;;
44098;SDS011;29762;50.086;14.364;2022-10-16T17:59:22;0.30;;;0.30;;
44098;SDS011;29762;50.086;14.364;2022-10-16T18:04:41;0.40;;;0.40;;
44098;SDS011;29762;50.086;14.364;2022-10-16T18:10:01;0.40;;;0.40;;
44098;SDS011;29762;50.086;14.364;2022-10-16T18:15:24;2.17;;;0.70;;
44098;SDS011;29762;50.086;14.364;2022-10-16T18:20:44;1.13;;;0.80;;
44098;SDS011;29762;50.086;14.364;2022-10-16T18:26:05;2.03;;;0.90;;
44098;SDS011;29762;50.086;14.364;2022-10-16T18:31:25;1.48;;;0.80;;
44098;SDS011;29762;50.086;14.364;2022-10-16T18:36:45;1.50;;;0.80;;
44098;SDS011;29762;50.086;14.364;2022-10-16T18:42:04;1.55;;;0.90;;
44098;SDS011;29762;50.086;14.364;2022-10-16T18:47:23;1.60;;;0.90;;
44098;SDS011;29762;50.086;14.364;2022-10-16T18:52:46;3.90;;;1.00;;
44098;SDS011;29762;50.086;14.364;2022-10-16T18:58:07;2.88;;;1.10;;
44098;SDS011;29762;50.086;14.364;2022-10-16T19:03:26;5.35;;;0.95;;
44098;SDS011;29762;50.086;14.364;2022-10-16T19:08:45;2.78;;;0.90;;
44098;SDS011;29762;50.086;14.364;2022-10-16T19:14:05;5.35;;;1.15;;
44098;SDS011;29762;50.086;14.364;2022-10-16T19:19:25;2.13;;;1.20;;
44098;SDS011;29762;50.086;14.364;2022-10-16T19:24:45;6.15;;;1.20;;
44098;SDS011;29762;50.086;14.364;2022-10-16T19:30:04;3.35;;;1.08;;
44098;SDS011;29762;50.086;14.364;2022-10-16T19:35:24;4.57;;;1.10;;
44098;SDS011;29762;50.086;14.364;2022-10-16T19:40:45;3.08;;;1.00;;
44098;SDS011;29762;50.086;14.364;2022-10-16T19:46:05;4.07;;;1.10;;
44098;SDS011;29762;50.086;14.364;2022-10-16T19:51:27;2.05;;;1.00;;
44098;SDS011;29762;50.086;14.364;2022-10-16T19:56:47;3.67;;;1.10;;
44098;SDS011;29762;50.086;14.364;2022-10-16T20:02:08;4.20;;;1.00;;
44098;SDS011;29762;50.086;14.364;2022-10-16T20:07:28;3.28;;;1.00;;
44098;SDS011;29762;50.086;14.364;2022-10-16T20:12:48;2.35;;;1.00;;
44098;SDS011;29762;50.086;14.364;2022-10-16T20:18:07;2.10;;;1.13;;
44098;SDS011;29762;50.086;14.364;2022-10-16T20:23:27;1.73;;;0.90;;
44098;SDS011;29762;50.086;14.364;2022-10-16T20:28:47;2.10;;;0.77;;
44098;SDS011;29762;50.086;14.364;2022-10-16T20:34:08;2.65;;;1.20;;
44098;SDS011;29762;50.086;14.364;2022-10-16T20:39:29;1.35;;;1.08;;
44098;SDS011;29762;50.086;14.364;2022-10-16T20:44:48;3.75;;;1.23;;
44098;SDS011;29762;50.086;14.364;2022-10-16T20:50:07;2.92;;;1.10;;
44098;SDS011;29762;50.086;14.364;2022-10-16T20:55:27;1.70;;;1.10;;
44098;SDS011;29762;50.086;14.364;2022-10-16T21:00:47;3.20;;;1.33;;
44098;SDS011;29762;50.086;14.364;2022-10-16T21:06:07;2.67;;;0.93;;
44098;SDS011;29762;50.086;14.364;2022-10-16T21:11:28;2.20;;;1.08;;
44098;SDS011;29762;50.086;14.364;2022-10-16T21:16:49;1.75;;;1.10;;
44098;SDS011;29762;50.086;14.364;2022-10-16T21:22:09;1.85;;;1.10;;
44098;SDS011;29762;50.086;14.364;2022-10-16T21:27:28;3.08;;;1.00;;
44098;SDS011;29762;50.086;14.364;2022-10-16T21:32:48;2.15;;;1.10;;
44098;SDS011;29762;50.086;14.364;2022-10-16T21:38:07;2.40;;;1.10;;
44098;SDS011;29762;50.086;14.364;2022-10-16T21:43:27;1.50;;;0.90;;
44098;SDS011;29762;50.086;14.364;2022-10-16T21:48:46;3.13;;;0.90;;
44098;SDS011;29762;50.086;14.364;2022-10-16T21:54:06;2.00;;;1.00;;
44098;SDS011;29762;50.086;14.364;2022-10-16T21:59:27;2.25;;;0.88;;
44098;SDS011;29762;50.086;14.364;2022-10-16T22:04:47;1.48;;;1.10;;
44098;SDS011;29762;50.086;14.364;2022-10-16T22:10:06;2.08;;;1.00;;
44098;SDS011;29762;50.086;14.364;2022-10-16T22:15:26;1.50;;;0.98;;
44098;SDS011;29762;50.086;14.364;2022-10-16T22:20:45;2.35;;;1.05;;
44098;SDS011;29762;50.086;14.364;2022-10-16T22:26:06;1.65;;;1.00;;
44098;SDS011;29762;50.086;14.364;2022-10-16T22:31:27;2.15;;;0.90;;
44098;SDS011;29762;50.086;14.364;2022-10-16T22:36:47;1.67;;;1.00;;
44098;SDS011;29762;50.086;14.364;2022-10-16T22:42:07;2.38;;;1.27;;
44098;SDS011;29762;50.086;14.364;2022-10-16T22:47:27;1.08;;;1.00;;
44098;SDS011;29762;50.086;14.364;2022-10-16T22:52:46;1.27;;;0.95;;
44098;SDS011;29762;50.086;14.364;2022-10-16T22:58:06;1.48;;;1.15;;
44098;SDS011;29762;50.086;14.364;2022-10-16T23:03:25;1.23;;;1.10;;
44098;SDS011;29762;50.086;14.364;2022-10-16T23:08:49;1.00;;;0.90;;
44098;SDS011;29762;50.086;14.364;2022-10-16T23:14:09;1.58;;;1.17;;
44098;SDS011;29762;50.086;14.364;2022-10-16T23:19:28;2.17;;;1.10;;
44098;SDS011;29762;50.086;14.364;2022-10-16T23:24:48;1.70;;;1.00;;
44098;SDS011;29762;50.086;14.364;2022-10-16T23:30:07;1.20;;;0.90;;
44098;SDS011;29762;50.086;14.364;2022-10-16T23:35:26;2.20;;;0.90;;
44098;SDS011;29762;50.086;14.364;2022-10-16T23:40:46;1.25;;;0.95;;
44098;SDS011;29762;50.086;14.364;2022-10-16T23:46:06;1.58;;;0.98;;
44098;SDS011;29762;50.086;14.364;2022-10-16T23:51:26;1.08;;;0.98;;
44098;SDS011;29762;50.086;14.364;2022-10-16T23:56:45;1.17;;;1.08;;
